sensor_id;sensor_type;location;lat;lon;timestamp;pressure;altitude;pressure_sealevel;temperature;humidity
29879;BME280;16752;53.364;-1.488;2023-04-23T00:00:55;98959.66;;;17.24;44.83
29879;BME280;16752;53.364;-1.488;2023-04-23T00:03:47;99033.75;;;17.69;45.06
29879;BME280;16752;53.364;-1.488;2023-04-23T00:06:58;99020.53;;;17.69;45.10
29879;BME280;16752;53.364;-1.488;2023-04-23T00:10:04;98974.69;;;17.46;45.20
29879;BME280;16752;53.364;-1.488;2023-04-23T00:12:59;98897.16;;;17.00;45.32
29879;BME280;16752;53.364;-1.488;2023-04-23T00:15:47;98914.13;;;17.05;45.30
29879;BME280;16752;53.364;-1.488;2023-04-23T00:18:39;98934.81;;;17.25;45.31
29879;BME280;16752;53.364;-1.488;2023-04-23T00:21:36;98996.38;;;17.64;45.37
29879;BME280;16752;53.364;-1.488;2023-04-23T00:24:20;98899.91;;;17.06;45.42
29879;BME280;16752;53.364;-1.488;2023-04-23T00:27:04;98899.91;;;17.06;45.51
29879;BME280;16752;53.364;-1.488;2023-04-23T00:29:52;98920.22;;;17.29;45.75
29879;BME280;16752;53.364;-1.488;2023-04-23T00:32:57;98951.41;;;17.41;45.60
29879;BME280;16752;53.364;-1.488;2023-04-23T00:35:54;98874.16;;;17.00;45.63
29879;BME280;16752;53.364;-1.488;2023-04-23T00:38:55;98940.19;;;17.54;45.60
29879;BME280;16752;53.364;-1.488;2023-04-23T00:41:40;98915.22;;;17.34;45.68
29879;BME280;16752;53.364;-1.488;2023-04-23T00:44:32;98923.75;;;17.44;45.65
29879;BME280;16752;53.364;-1.488;2023-04-23T00:47:16;98901.16;;;17.33;45.65
29879;BME280;16752;53.364;-1.488;2023-04-23T00:50:04;98857.84;;;17.11;45.65
29879;BME280;16752;53.364;-1.488;2023-04-23T00:52:50;98902.19;;;17.47;45.64
29879;BME280;16752;53.364;-1.488;2023-04-23T00:55:38;98959.81;;;17.83;45.69
29879;BME280;16752;53.364;-1.488;2023-04-23T00:58:23;98914.53;;;17.55;45.66
29879;BME280;16752;53.364;-1.488;2023-04-23T01:01:10;98947.75;;;17.80;45.75
29879;BME280;16752;53.364;-1.488;2023-04-23T01:03:57;98944.28;;;17.80;45.86
29879;BME280;16752;53.364;-1.488;2023-04-23T01:06:43;98903.47;;;17.51;45.98
29879;BME280;16752;53.364;-1.488;2023-04-23T01:09:30;98943.47;;;17.79;45.86
29879;BME280;16752;53.364;-1.488;2023-04-23T01:12:15;98911.81;;;17.63;45.71
29879;BME280;16752;53.364;-1.488;2023-04-23T01:15:05;98864.47;;;17.30;45.92
29879;BME280;16752;53.364;-1.488;2023-04-23T01:17:51;98841.66;;;17.15;45.95
29879;BME280;16752;53.364;-1.488;2023-04-23T01:20:37;98828.50;;;17.21;45.91
29879;BME280;16752;53.364;-1.488;2023-04-23T01:23:22;98876.63;;;17.54;45.93
29879;BME280;16752;53.364;-1.488;2023-04-23T01:26:06;98895.56;;;17.66;46.01
29879;BME280;16752;53.364;-1.488;2023-04-23T01:28:50;98924.00;;;17.87;45.82
29879;BME280;16752;53.364;-1.488;2023-04-23T01:31:36;98882.88;;;17.61;46.14
29879;BME280;16752;53.364;-1.488;2023-04-23T01:34:21;98823.94;;;17.30;45.96
29879;BME280;16752;53.364;-1.488;2023-04-23T01:37:11;98880.66;;;17.65;45.80
29879;BME280;16752;53.364;-1.488;2023-04-23T01:39:57;98879.66;;;17.66;45.99
29879;BME280;16752;53.364;-1.488;2023-04-23T01:42:42;98838.00;;;17.30;46.21
29879;BME280;16752;53.364;-1.488;2023-04-23T01:45:29;98852.53;;;17.49;45.90
29879;BME280;16752;53.364;-1.488;2023-04-23T01:48:14;98873.47;;;17.59;46.13
29879;BME280;16752;53.364;-1.488;2023-04-23T01:50:59;98861.09;;;17.51;45.85
29879;BME280;16752;53.364;-1.488;2023-04-23T01:53:46;98875.19;;;17.66;46.04
29879;BME280;16752;53.364;-1.488;2023-04-23T01:56:30;98849.81;;;17.57;46.11
29879;BME280;16752;53.364;-1.488;2023-04-23T01:59:17;98810.00;;;17.36;46.01
29879;BME280;16752;53.364;-1.488;2023-04-23T02:02:01;98908.81;;;17.95;46.13
29879;BME280;16752;53.364;-1.488;2023-04-23T02:04:49;98837.53;;;17.56;45.96
29879;BME280;16752;53.364;-1.488;2023-04-23T02:07:36;98900.06;;;17.95;46.19
29879;BME280;16752;53.364;-1.488;2023-04-23T02:10:20;98811.66;;;17.37;45.92
29879;BME280;16752;53.364;-1.488;2023-04-23T02:13:07;98866.47;;;17.81;46.25
29879;BME280;16752;53.364;-1.488;2023-04-23T02:15:52;98883.25;;;17.88;45.99
29879;BME280;16752;53.364;-1.488;2023-04-23T02:18:45;98848.00;;;17.73;46.17
29879;BME280;16752;53.364;-1.488;2023-04-23T02:21:34;98841.06;;;17.71;46.23
29879;BME280;16752;53.364;-1.488;2023-04-23T02:24:19;98862.94;;;17.65;46.58
29879;BME280;16752;53.364;-1.488;2023-04-23T02:27:20;98840.50;;;17.61;46.20
29879;BME280;16752;53.364;-1.488;2023-04-23T02:30:05;98777.03;;;17.24;46.18
29879;BME280;16752;53.364;-1.488;2023-04-23T02:32:53;98775.81;;;17.11;46.07
29879;BME280;16752;53.364;-1.488;2023-04-23T02:35:43;98809.06;;;17.29;46.27
29879;BME280;16752;53.364;-1.488;2023-04-23T02:38:27;98827.69;;;17.21;46.88
29879;BME280;16752;53.364;-1.488;2023-04-23T02:41:11;98845.97;;;17.60;46.22
29879;BME280;16752;53.364;-1.488;2023-04-23T02:43:58;98830.91;;;17.46;46.38
29879;BME280;16752;53.364;-1.488;2023-04-23T02:46:42;98851.16;;;17.53;46.15
29879;BME280;16752;53.364;-1.488;2023-04-23T02:49:31;98846.22;;;17.50;46.14
29879;BME280;16752;53.364;-1.488;2023-04-23T02:52:18;98878.97;;;17.72;46.27
29879;BME280;16752;53.364;-1.488;2023-04-23T02:55:10;98880.78;;;17.71;46.12
29879;BME280;16752;53.364;-1.488;2023-04-23T02:58:04;98797.03;;;17.26;46.07
29879;BME280;16752;53.364;-1.488;2023-04-23T03:00:55;98816.84;;;17.45;46.14
29879;BME280;16752;53.364;-1.488;2023-04-23T03:03:50;98884.00;;;17.82;45.95
29879;BME280;16752;53.364;-1.488;2023-04-23T03:06:37;98852.16;;;17.67;46.23
29879;BME280;16752;53.364;-1.488;2023-04-23T03:09:21;98838.66;;;17.47;46.29
29879;BME280;16752;53.364;-1.488;2023-04-23T03:12:27;98820.84;;;17.56;46.09
29879;BME280;16752;53.364;-1.488;2023-04-23T03:15:22;98836.19;;;17.60;45.88
29879;BME280;16752;53.364;-1.488;2023-04-23T03:18:06;98806.63;;;17.42;46.18
29879;BME280;16752;53.364;-1.488;2023-04-23T03:20:54;98817.75;;;17.52;46.19
29879;BME280;16752;53.364;-1.488;2023-04-23T03:23:44;98836.00;;;17.62;46.19
29879;BME280;16752;53.364;-1.488;2023-04-23T03:26:31;98861.50;;;17.78;46.20
29879;BME280;16752;53.364;-1.488;2023-04-23T03:29:33;98856.75;;;17.73;46.16
29879;BME280;16752;53.364;-1.488;2023-04-23T03:32:19;98831.72;;;17.46;46.13
29879;BME280;16752;53.364;-1.488;2023-04-23T03:35:04;98770.91;;;17.08;46.33
29879;BME280;16752;53.364;-1.488;2023-04-23T03:38:01;98841.94;;;17.49;46.48
29879;BME280;16752;53.364;-1.488;2023-04-23T03:41:03;98776.34;;;16.77;46.59
29879;BME280;16752;53.364;-1.488;2023-04-23T03:44:07;98828.44;;;17.44;46.18
29879;BME280;16752;53.364;-1.488;2023-04-23T03:47:12;98780.56;;;17.01;46.06
29879;BME280;16752;53.364;-1.488;2023-04-23T03:49:56;98833.28;;;17.40;46.09
29879;BME280;16752;53.364;-1.488;2023-04-23T03:52:55;98791.97;;;17.02;46.44
29879;BME280;16752;53.364;-1.488;2023-04-23T03:55:53;98832.91;;;16.91;47.03
29879;BME280;16752;53.364;-1.488;2023-04-23T03:58:54;98862.13;;;17.35;46.59
29879;BME280;16752;53.364;-1.488;2023-04-23T04:01:42;98785.59;;;16.96;46.16
29879;BME280;16752;53.364;-1.488;2023-04-23T04:12:11;98781.84;;;17.05;46.51
29879;BME280;16752;53.364;-1.488;2023-04-23T04:19:26;98759.50;;;16.93;47.01
29879;BME280;16752;53.364;-1.488;2023-04-23T04:22:42;98851.34;;;17.52;46.34
29879;BME280;16752;53.364;-1.488;2023-04-23T08:21:29;98871.66;;;18.04;43.46
29879;BME280;16752;53.364;-1.488;2023-04-23T08:24:17;98828.91;;;17.77;43.54
29879;BME280;16752;53.364;-1.488;2023-04-23T08:27:24;98778.41;;;17.49;43.90
29879;BME280;16752;53.364;-1.488;2023-04-23T08:30:28;98830.69;;;18.06;43.36
29879;BME280;16752;53.364;-1.488;2023-04-23T08:33:30;98870.25;;;18.08;43.54
29879;BME280;16752;53.364;-1.488;2023-04-23T08:36:14;98876.81;;;17.00;43.74
29879;BME280;16752;53.364;-1.488;2023-04-23T08:38:58;98842.88;;;17.86;42.68
29879;BME280;16752;53.364;-1.488;2023-04-23T08:45:18;98841.41;;;17.39;43.13
29879;BME280;16752;53.364;-1.488;2023-04-23T08:48:08;98843.34;;;17.75;42.29
29879;BME280;16752;53.364;-1.488;2023-04-23T08:50:52;98849.75;;;17.80;42.13
29879;BME280;16752;53.364;-1.488;2023-04-23T08:53:37;98888.66;;;17.80;43.16
29879;BME280;16752;53.364;-1.488;2023-04-23T08:56:23;98892.53;;;18.13;42.52
29879;BME280;16752;53.364;-1.488;2023-04-23T08:59:07;98814.28;;;17.66;42.31
29879;BME280;16752;53.364;-1.488;2023-04-23T09:01:52;98871.97;;;18.15;41.94
29879;BME280;16752;53.364;-1.488;2023-04-23T09:04:40;98895.06;;;18.21;41.96
29879;BME280;16752;53.364;-1.488;2023-04-23T09:07:50;98789.28;;;17.39;41.41
29879;BME280;16752;53.364;-1.488;2023-04-23T09:10:46;98827.88;;;17.63;41.18
29879;BME280;16752;53.364;-1.488;2023-04-23T09:13:34;98784.97;;;17.24;41.72
29879;BME280;16752;53.364;-1.488;2023-04-23T09:16:23;98852.03;;;17.83;41.88
29879;BME280;16752;53.364;-1.488;2023-04-23T09:19:09;98844.53;;;17.72;42.16
29879;BME280;16752;53.364;-1.488;2023-04-23T09:21:55;98866.16;;;18.05;41.88
29879;BME280;16752;53.364;-1.488;2023-04-23T09:24:43;98839.09;;;17.95;41.71
29879;BME280;16752;53.364;-1.488;2023-04-23T09:27:27;98797.59;;;17.81;41.77
29879;BME280;16752;53.364;-1.488;2023-04-23T09:30:12;98817.84;;;17.88;42.11
29879;BME280;16752;53.364;-1.488;2023-04-23T09:32:56;98823.38;;;18.08;41.63
29879;BME280;16752;53.364;-1.488;2023-04-23T09:35:40;98786.88;;;17.89;41.24
29879;BME280;16752;53.364;-1.488;2023-04-23T09:38:26;98756.56;;;17.77;40.66
29879;BME280;16752;53.364;-1.488;2023-04-23T09:41:21;98768.44;;;17.81;40.97
29879;BME280;16752;53.364;-1.488;2023-04-23T09:44:06;98829.59;;;18.37;40.69
29879;BME280;16752;53.364;-1.488;2023-04-23T09:46:58;98833.16;;;18.65;40.96
29879;BME280;16752;53.364;-1.488;2023-04-23T09:49:50;98748.22;;;18.16;40.93
29879;BME280;16752;53.364;-1.488;2023-04-23T09:52:38;98778.78;;;18.76;40.84
29879;BME280;16752;53.364;-1.488;2023-04-23T09:55:29;98777.31;;;18.95;39.27
29879;BME280;16752;53.364;-1.488;2023-04-23T09:58:14;98833.19;;;19.14;40.34
29879;BME280;16752;53.364;-1.488;2023-04-23T10:01:06;98779.16;;;18.94;39.76
29879;BME280;16752;53.364;-1.488;2023-04-23T10:03:52;98890.56;;;19.37;38.88
29879;BME280;16752;53.364;-1.488;2023-04-23T10:06:36;98820.56;;;17.51;42.14
29879;BME280;16752;53.364;-1.488;2023-04-23T10:09:21;98786.41;;;18.43;39.69
29879;BME280;16752;53.364;-1.488;2023-04-23T10:12:08;98797.41;;;18.40;39.19
29879;BME280;16752;53.364;-1.488;2023-04-23T10:15:03;98915.25;;;18.88;40.66
29879;BME280;16752;53.364;-1.488;2023-04-23T10:17:47;98796.75;;;17.51;41.30
29879;BME280;16752;53.364;-1.488;2023-04-23T10:20:33;98916.38;;;18.79;41.10
29879;BME280;16752;53.364;-1.488;2023-04-23T10:23:20;98869.56;;;18.71;40.27
29879;BME280;16752;53.364;-1.488;2023-04-23T10:34:23;98908.50;;;18.35;42.24
29879;BME280;16752;53.364;-1.488;2023-04-23T10:37:06;98872.41;;;18.33;41.78
29879;BME280;16752;53.364;-1.488;2023-04-23T10:39:56;98795.25;;;18.07;41.23
29879;BME280;16752;53.364;-1.488;2023-04-23T10:42:44;98858.66;;;18.45;41.72
29879;BME280;16752;53.364;-1.488;2023-04-23T10:45:30;98885.75;;;18.61;41.73
29879;BME280;16752;53.364;-1.488;2023-04-23T10:48:15;98847.72;;;18.33;41.71
29879;BME280;16752;53.364;-1.488;2023-04-23T10:51:02;98785.13;;;17.96;41.69
29879;BME280;16752;53.364;-1.488;2023-04-23T10:53:46;98855.50;;;18.56;41.48
29879;BME280;16752;53.364;-1.488;2023-04-23T10:56:30;98812.19;;;18.27;41.73
29879;BME280;16752;53.364;-1.488;2023-04-23T10:59:19;98882.88;;;17.91;42.43
29879;BME280;16752;53.364;-1.488;2023-04-23T11:02:08;98875.03;;;17.83;42.98
29879;BME280;16752;53.364;-1.488;2023-04-23T11:04:59;98851.44;;;18.39;41.85
29879;BME280;16752;53.364;-1.488;2023-04-23T11:08:04;98874.44;;;18.53;42.17
29879;BME280;16752;53.364;-1.488;2023-04-23T11:10:57;98803.09;;;18.37;41.22
29879;BME280;16752;53.364;-1.488;2023-04-23T11:13:50;98923.88;;;18.75;42.30
29879;BME280;16752;53.364;-1.488;2023-04-23T11:16:36;98840.75;;;18.47;41.31
29879;BME280;16752;53.364;-1.488;2023-04-23T11:19:21;98823.22;;;18.31;40.68
29879;BME280;16752;53.364;-1.488;2023-04-23T11:22:16;98916.31;;;18.93;40.83
29879;BME280;16752;53.364;-1.488;2023-04-23T11:25:03;98822.84;;;18.34;40.84
29879;BME280;16752;53.364;-1.488;2023-04-23T11:27:50;98807.75;;;18.35;41.12
29879;BME280;16752;53.364;-1.488;2023-04-23T11:30:35;98795.56;;;18.19;40.46
29879;BME280;16752;53.364;-1.488;2023-04-23T11:33:19;98833.28;;;19.28;40.11
29879;BME280;16752;53.364;-1.488;2023-04-23T11:36:04;98836.44;;;19.72;38.22
29879;BME280;16752;53.364;-1.488;2023-04-23T11:38:49;98862.50;;;19.90;39.32
29879;BME280;16752;53.364;-1.488;2023-04-23T11:41:33;98919.00;;;20.47;37.49
29879;BME280;16752;53.364;-1.488;2023-04-23T11:44:19;98879.13;;;20.05;37.92
29879;BME280;16752;53.364;-1.488;2023-04-23T11:47:06;98855.59;;;19.33;39.33
29879;BME280;16752;53.364;-1.488;2023-04-23T11:49:56;98918.78;;;20.00;38.05
29879;BME280;16752;53.364;-1.488;2023-04-23T11:52:42;98900.56;;;18.35;39.63
29879;BME280;16752;53.364;-1.488;2023-04-23T11:55:30;98938.53;;;19.57;38.13
29879;BME280;16752;53.364;-1.488;2023-04-23T11:58:17;98891.59;;;19.14;38.71
29879;BME280;16752;53.364;-1.488;2023-04-23T12:01:01;98934.84;;;18.87;39.97
29879;BME280;16752;53.364;-1.488;2023-04-23T12:03:47;98857.81;;;18.80;39.60
29879;BME280;16752;53.364;-1.488;2023-04-23T12:06:31;98918.91;;;18.51;40.31
29879;BME280;16752;53.364;-1.488;2023-04-23T12:09:17;98861.34;;;18.30;40.88
29879;BME280;16752;53.364;-1.488;2023-04-23T12:12:02;98903.53;;;18.82;39.24
29879;BME280;16752;53.364;-1.488;2023-04-23T12:14:47;98924.16;;;18.00;41.68
29879;BME280;16752;53.364;-1.488;2023-04-23T12:17:31;98938.66;;;19.06;39.86
29879;BME280;16752;53.364;-1.488;2023-04-23T12:20:20;98906.00;;;18.84;39.91
29879;BME280;16752;53.364;-1.488;2023-04-23T12:23:04;98875.63;;;18.29;40.68
29879;BME280;16752;53.364;-1.488;2023-04-23T12:25:52;98931.34;;;19.08;39.54
29879;BME280;16752;53.364;-1.488;2023-04-23T12:28:52;98905.19;;;18.83;39.44
29879;BME280;16752;53.364;-1.488;2023-04-23T12:31:36;98963.31;;;19.00;40.54
29879;BME280;16752;53.364;-1.488;2023-04-23T12:34:21;98875.72;;;18.57;39.89
29879;BME280;16752;53.364;-1.488;2023-04-23T12:37:06;98880.97;;;18.36;40.98
29879;BME280;16752;53.364;-1.488;2023-04-23T12:39:50;98853.94;;;17.75;42.52
29879;BME280;16752;53.364;-1.488;2023-04-23T12:42:35;98897.13;;;17.90;42.75
29879;BME280;16752;53.364;-1.488;2023-04-23T12:45:20;98882.63;;;18.00;42.67
29879;BME280;16752;53.364;-1.488;2023-04-23T12:48:11;98967.47;;;18.66;41.88
29879;BME280;16752;53.364;-1.488;2023-04-23T12:50:55;98942.97;;;18.49;42.09
29879;BME280;16752;53.364;-1.488;2023-04-23T12:53:39;98954.97;;;17.86;43.83
29879;BME280;16752;53.364;-1.488;2023-04-23T12:56:23;98870.00;;;17.88;42.92
29879;BME280;16752;53.364;-1.488;2023-04-23T12:59:07;98895.06;;;18.21;42.27
29879;BME280;16752;53.364;-1.488;2023-04-23T13:01:51;98878.91;;;18.16;42.20
29879;BME280;16752;53.364;-1.488;2023-04-23T13:04:36;98885.03;;;18.31;41.22
29879;BME280;16752;53.364;-1.488;2023-04-23T13:07:19;98869.44;;;18.22;41.72
29879;BME280;16752;53.364;-1.488;2023-04-23T13:10:04;98914.06;;;18.40;42.34
29879;BME280;16752;53.364;-1.488;2023-04-23T13:12:49;98895.88;;;18.37;42.17
29879;BME280;16752;53.364;-1.488;2023-04-23T13:15:33;98903.38;;;18.48;41.60
29879;BME280;16752;53.364;-1.488;2023-04-23T13:18:17;98886.66;;;18.32;41.70
29879;BME280;16752;53.364;-1.488;2023-04-23T13:21:01;98931.41;;;18.57;41.28
29879;BME280;16752;53.364;-1.488;2023-04-23T13:23:45;98963.25;;;18.72;42.04
29879;BME280;16752;53.364;-1.488;2023-04-23T13:26:29;98974.53;;;18.80;42.04
29879;BME280;16752;53.364;-1.488;2023-04-23T13:29:15;98954.47;;;18.71;41.28
29879;BME280;16752;53.364;-1.488;2023-04-23T13:31:59;98888.81;;;18.22;41.71
29879;BME280;16752;53.364;-1.488;2023-04-23T13:34:43;98922.19;;;18.53;41.47
29879;BME280;16752;53.364;-1.488;2023-04-23T13:37:28;98934.69;;;18.59;41.56
29879;BME280;16752;53.364;-1.488;2023-04-23T13:40:14;98913.19;;;18.32;41.65
29879;BME280;16752;53.364;-1.488;2023-04-23T13:42:58;98960.63;;;18.27;42.99
29879;BME280;16752;53.364;-1.488;2023-04-23T13:45:42;98933.06;;;18.43;41.73
29879;BME280;16752;53.364;-1.488;2023-04-23T13:48:27;98892.03;;;18.03;42.72
29879;BME280;16752;53.364;-1.488;2023-04-23T13:51:14;98928.50;;;18.52;42.01
29879;BME280;16752;53.364;-1.488;2023-04-23T13:53:58;98953.88;;;18.76;42.26
29879;BME280;16752;53.364;-1.488;2023-04-23T13:56:42;98941.91;;;18.65;42.50
29879;BME280;16752;53.364;-1.488;2023-04-23T13:59:26;98930.69;;;18.63;42.32
29879;BME280;16752;53.364;-1.488;2023-04-23T14:02:10;98916.13;;;18.59;42.62
29879;BME280;16752;53.364;-1.488;2023-04-23T14:04:54;98911.09;;;18.64;42.39
29879;BME280;16752;53.364;-1.488;2023-04-23T14:07:38;98921.72;;;18.64;42.88
29879;BME280;16752;53.364;-1.488;2023-04-23T14:10:22;98979.00;;;19.16;42.39
29879;BME280;16752;53.364;-1.488;2023-04-23T14:13:07;98871.59;;;18.69;42.27
29879;BME280;16752;53.364;-1.488;2023-04-23T14:15:50;98975.19;;;19.46;41.68
29879;BME280;16752;53.364;-1.488;2023-04-23T14:18:34;98919.66;;;19.02;41.98
29879;BME280;16752;53.364;-1.488;2023-04-23T14:21:18;98886.97;;;18.23;42.54
29879;BME280;16752;53.364;-1.488;2023-04-23T14:24:08;98870.56;;;18.91;41.62
29879;BME280;16752;53.364;-1.488;2023-04-23T14:27:05;98927.94;;;19.14;41.80
29879;BME280;16752;53.364;-1.488;2023-04-23T14:29:55;98977.94;;;19.32;41.43
29879;BME280;16752;53.364;-1.488;2023-04-23T14:32:40;98923.13;;;19.24;40.94
29879;BME280;16752;53.364;-1.488;2023-04-23T14:35:25;98894.75;;;19.03;42.07
29879;BME280;16752;53.364;-1.488;2023-04-23T14:38:09;98947.34;;;19.36;41.49
29879;BME280;16752;53.364;-1.488;2023-04-23T14:41:03;98878.59;;;19.26;40.77
29879;BME280;16752;53.364;-1.488;2023-04-23T14:43:47;98891.22;;;19.17;40.89
29879;BME280;16752;53.364;-1.488;2023-04-23T14:46:32;98918.69;;;19.31;40.45
29879;BME280;16752;53.364;-1.488;2023-04-23T14:49:17;98869.16;;;19.17;39.53
29879;BME280;16752;53.364;-1.488;2023-04-23T14:52:02;98938.41;;;19.43;40.03
29879;BME280;16752;53.364;-1.488;2023-04-23T14:54:46;98951.19;;;19.55;39.86
29879;BME280;16752;53.364;-1.488;2023-04-23T14:57:30;98894.53;;;19.26;39.96
29879;BME280;16752;53.364;-1.488;2023-04-23T15:00:15;98909.22;;;19.22;39.81
29879;BME280;16752;53.364;-1.488;2023-04-23T15:02:59;98980.69;;;19.94;39.83
29879;BME280;16752;53.364;-1.488;2023-04-23T15:05:45;98921.66;;;19.71;39.16
29879;BME280;16752;53.364;-1.488;2023-04-23T15:08:29;98916.16;;;19.72;39.06
29879;BME280;16752;53.364;-1.488;2023-04-23T15:19:09;98921.84;;;22.43;32.97
29879;BME280;16752;53.364;-1.488;2023-04-23T15:21:56;98965.06;;;23.66;31.89
29879;BME280;16752;53.364;-1.488;2023-04-23T15:24:41;98951.84;;;25.11;29.03
29879;BME280;16752;53.364;-1.488;2023-04-23T15:27:28;98920.09;;;24.36;28.22
29879;BME280;16752;53.364;-1.488;2023-04-23T15:30:24;98928.28;;;27.61;26.32
29879;BME280;16752;53.364;-1.488;2023-04-23T15:33:12;98907.44;;;28.28;24.24
29879;BME280;16752;53.364;-1.488;2023-04-23T15:39:19;98913.31;;;30.07;21.13
29879;BME280;16752;53.364;-1.488;2023-04-23T15:42:03;98922.94;;;28.87;22.27
29879;BME280;16752;53.364;-1.488;2023-04-23T15:45:23;98906.69;;;27.05;24.67
29879;BME280;16752;53.364;-1.488;2023-04-23T15:48:31;98961.25;;;26.37;25.49
29879;BME280;16752;53.364;-1.488;2023-04-23T15:51:16;98883.66;;;24.35;26.82
29879;BME280;16752;53.364;-1.488;2023-04-23T15:54:41;98901.53;;;27.04;25.10
29879;BME280;16752;53.364;-1.488;2023-04-23T15:57:37;98920.13;;;28.82;22.72
29879;BME280;16752;53.364;-1.488;2023-04-23T16:00:38;98977.88;;;29.40;22.55
29879;BME280;16752;53.364;-1.488;2023-04-23T16:03:23;98910.34;;;30.82;20.15
29879;BME280;16752;53.364;-1.488;2023-04-23T16:06:10;98965.56;;;31.87;19.34
29879;BME280;16752;53.364;-1.488;2023-04-23T16:08:54;98968.03;;;31.43;20.00
29879;BME280;16752;53.364;-1.488;2023-04-23T16:11:38;98929.31;;;31.88;18.34
29879;BME280;16752;53.364;-1.488;2023-04-23T16:14:23;98928.16;;;30.78;19.36
29879;BME280;16752;53.364;-1.488;2023-04-23T16:17:07;98932.91;;;29.93;20.97
29879;BME280;16752;53.364;-1.488;2023-04-23T16:19:52;98898.00;;;28.53;21.34
29879;BME280;16752;53.364;-1.488;2023-04-23T16:22:36;98938.84;;;26.20;23.64
29879;BME280;16752;53.364;-1.488;2023-04-23T16:25:20;98898.97;;;25.53;25.29
29879;BME280;16752;53.364;-1.488;2023-04-23T16:28:05;98954.91;;;25.26;25.80
29879;BME280;16752;53.364;-1.488;2023-04-23T16:30:49;98907.16;;;23.97;27.33
29879;BME280;16752;53.364;-1.488;2023-04-23T16:33:33;98928.09;;;24.18;26.83
29879;BME280;16752;53.364;-1.488;2023-04-23T16:36:17;98992.16;;;23.38;28.33
29879;BME280;16752;53.364;-1.488;2023-04-23T16:39:01;98995.50;;;23.34;28.78
29879;BME280;16752;53.364;-1.488;2023-04-23T16:41:45;98883.41;;;22.06;29.19
29879;BME280;16752;53.364;-1.488;2023-04-23T16:44:30;98942.63;;;22.35;28.29
29879;BME280;16752;53.364;-1.488;2023-04-23T16:47:14;99009.34;;;22.08;29.30
29879;BME280;16752;53.364;-1.488;2023-04-23T16:49:58;99002.97;;;22.03;29.11
29879;BME280;16752;53.364;-1.488;2023-04-23T16:52:42;98995.00;;;21.63;28.85
29879;BME280;16752;53.364;-1.488;2023-04-23T16:55:26;98943.34;;;21.44;29.67
29879;BME280;16752;53.364;-1.488;2023-04-23T16:58:10;98966.31;;;21.78;29.80
29879;BME280;16752;53.364;-1.488;2023-04-23T17:00:55;98910.38;;;21.39;30.91
29879;BME280;16752;53.364;-1.488;2023-04-23T17:03:39;98909.75;;;21.50;29.80
29879;BME280;16752;53.364;-1.488;2023-04-23T17:06:28;98967.72;;;21.87;29.23
29879;BME280;16752;53.364;-1.488;2023-04-23T17:09:13;98967.31;;;21.84;30.12
29879;BME280;16752;53.364;-1.488;2023-04-23T17:11:56;98959.75;;;21.61;31.03
29879;BME280;16752;53.364;-1.488;2023-04-23T17:14:41;98934.75;;;21.42;30.57
29879;BME280;16752;53.364;-1.488;2023-04-23T17:17:25;98959.78;;;21.48;30.51
29879;BME280;16752;53.364;-1.488;2023-04-23T17:20:09;98991.75;;;21.54;31.28
29879;BME280;16752;53.364;-1.488;2023-04-23T17:22:54;98928.78;;;21.07;31.28
29879;BME280;16752;53.364;-1.488;2023-04-23T17:25:38;99015.09;;;21.46;30.59
29879;BME280;16752;53.364;-1.488;2023-04-23T17:28:22;99002.13;;;21.16;31.58
29879;BME280;16752;53.364;-1.488;2023-04-23T17:31:07;98968.28;;;20.97;31.07
29879;BME280;16752;53.364;-1.488;2023-04-23T17:33:51;98953.94;;;20.85;31.08
29879;BME280;16752;53.364;-1.488;2023-04-23T17:36:39;98993.44;;;20.88;31.23
29879;BME280;16752;53.364;-1.488;2023-04-23T17:39:24;99037.69;;;20.95;32.03
29879;BME280;16752;53.364;-1.488;2023-04-23T17:42:08;99009.22;;;20.83;31.70
29879;BME280;16752;53.364;-1.488;2023-04-23T17:44:53;98992.34;;;20.62;31.95
29879;BME280;16752;53.364;-1.488;2023-04-23T17:47:37;98941.19;;;20.26;31.74
29879;BME280;16752;53.364;-1.488;2023-04-23T17:50:23;99022.63;;;20.61;31.59
29879;BME280;16752;53.364;-1.488;2023-04-23T17:53:07;99049.28;;;20.74;31.85
29879;BME280;16752;53.364;-1.488;2023-04-23T17:55:51;98994.22;;;20.34;32.11
29879;BME280;16752;53.364;-1.488;2023-04-23T17:58:36;99016.06;;;20.23;33.40
29879;BME280;16752;53.364;-1.488;2023-04-23T18:01:20;99035.44;;;20.44;32.83
29879;BME280;16752;53.364;-1.488;2023-04-23T18:04:04;99022.81;;;20.25;33.24
29879;BME280;16752;53.364;-1.488;2023-04-23T18:06:49;99064.69;;;20.44;33.86
29879;BME280;16752;53.364;-1.488;2023-04-23T18:09:33;98964.78;;;19.73;33.14
29879;BME280;16752;53.364;-1.488;2023-04-23T18:12:17;99035.88;;;20.20;33.28
29879;BME280;16752;53.364;-1.488;2023-04-23T18:15:02;99062.97;;;20.37;33.39
29879;BME280;16752;53.364;-1.488;2023-04-23T18:17:46;99001.75;;;19.68;34.58
29879;BME280;16752;53.364;-1.488;2023-04-23T18:20:30;99027.84;;;19.86;33.93
29879;BME280;16752;53.364;-1.488;2023-04-23T18:23:15;99028.94;;;19.70;34.37
29879;BME280;16752;53.364;-1.488;2023-04-23T18:26:00;99096.34;;;20.11;35.64
29879;BME280;16752;53.364;-1.488;2023-04-23T18:28:57;99023.63;;;19.27;38.19
29879;BME280;16752;53.364;-1.488;2023-04-23T18:40:49;99044.41;;;17.99;44.91
29879;BME280;16752;53.364;-1.488;2023-04-23T18:43:42;99075.00;;;18.54;44.04
29879;BME280;16752;53.364;-1.488;2023-04-23T18:46:41;99012.06;;;18.18;43.44
29879;BME280;16752;53.364;-1.488;2023-04-23T18:53:00;99018.88;;;17.68;44.65
29879;BME280;16752;53.364;-1.488;2023-04-23T18:55:44;99078.53;;;18.02;45.08
29879;BME280;16752;53.364;-1.488;2023-04-23T18:58:28;99056.28;;;17.88;44.71
29879;BME280;16752;53.364;-1.488;2023-04-23T19:01:13;99082.22;;;17.93;45.17
29879;BME280;16752;53.364;-1.488;2023-04-23T19:04:00;99108.84;;;17.77;46.42
29879;BME280;16752;53.364;-1.488;2023-04-23T19:06:44;99103.88;;;17.51;46.50
29879;BME280;16752;53.364;-1.488;2023-04-23T19:09:28;99131.75;;;17.69;46.20
29879;BME280;16752;53.364;-1.488;2023-04-23T19:12:13;99108.84;;;16.92;47.30
29879;BME280;16752;53.364;-1.488;2023-04-23T19:14:57;99118.72;;;17.60;45.76
29879;BME280;16752;53.364;-1.488;2023-04-23T19:17:41;99169.88;;;17.60;46.63
29879;BME280;16752;53.364;-1.488;2023-04-23T19:20:25;99097.97;;;17.18;46.96